createdAt,value
2023-05-12T00:00:08.658Z,12.30
2023-05-12T00:00:40.566Z,11.90
2023-05-12T00:01:14.147Z,11.88
2023-05-12T00:01:46.343Z,11.10
2023-05-12T00:02:18.237Z,10.55
2023-05-12T00:02:51.066Z,11.70
2023-05-12T00:03:23.838Z,9.88
2023-05-12T00:03:56.100Z,10.88
2023-05-12T00:04:29.168Z,10.38
2023-05-12T00:05:01.323Z,9.40
2023-05-12T00:05:33.431Z,9.77
2023-05-12T00:06:06.534Z,8.85
2023-05-12T00:06:39.647Z,9.95
2023-05-12T00:07:12.254Z,8.05
2023-05-12T00:07:44.987Z,9.48
2023-05-12T00:08:16.900Z,8.60
2023-05-12T00:08:48.719Z,8.40
2023-05-12T00:09:21.500Z,8.70
2023-05-12T00:09:53.330Z,9.35
2023-05-12T00:10:27.550Z,8.13
2023-05-12T00:11:00.596Z,8.50
2023-05-12T00:11:32.460Z,8.95
2023-05-12T00:12:04.958Z,8.88
2023-05-12T00:12:37.249Z,8.80
2023-05-12T00:13:10.245Z,7.72
2023-05-12T00:13:42.156Z,8.68
2023-05-12T00:14:13.948Z,8.98
2023-05-12T00:14:46.793Z,8.75
2023-05-12T00:15:19.747Z,9.32
2023-05-12T00:15:51.882Z,8.20
2023-05-12T00:16:24.707Z,7.88
2023-05-12T00:16:56.643Z,9.50
2023-05-12T00:17:28.575Z,8.30
2023-05-12T00:18:01.391Z,8.55
2023-05-12T00:18:33.222Z,9.45
2023-05-12T00:19:05.142Z,8.43
2023-05-12T00:19:37.969Z,8.23
2023-05-12T00:20:11.340Z,8.45
2023-05-12T00:20:43.428Z,9.07
2023-05-12T00:21:16.189Z,8.40
2023-05-12T00:21:49.347Z,7.32
2023-05-12T00:22:21.131Z,8.15
2023-05-12T00:22:52.973Z,8.43
2023-05-12T00:23:25.746Z,8.98
2023-05-12T00:23:57.522Z,8.05
2023-05-12T00:24:30.546Z,7.82
2023-05-12T00:25:03.337Z,8.23
2023-05-12T00:25:35.515Z,7.45
2023-05-12T00:26:07.343Z,9.02
2023-05-12T00:26:40.119Z,7.63
2023-05-12T00:27:11.947Z,9.20
2023-05-12T00:27:44.363Z,8.30
2023-05-12T00:28:17.275Z,6.78
2023-05-12T00:28:50.038Z,7.93
2023-05-12T00:29:21.854Z,7.20
2023-05-12T00:29:53.634Z,7.25
2023-05-12T00:30:26.506Z,7.72
2023-05-12T00:31:02.259Z,7.53
2023-05-12T00:31:34.098Z,6.78
2023-05-12T00:32:08.178Z,6.93
2023-05-12T00:32:40.018Z,6.90
2023-05-12T00:33:11.943Z,6.47
2023-05-12T00:33:44.666Z,6.85
2023-05-12T00:34:16.442Z,7.25
2023-05-12T00:34:50.195Z,6.95
2023-05-12T00:35:22.167Z,6.50
2023-05-12T00:35:54.911Z,7.82
2023-05-12T00:36:26.927Z,6.95
2023-05-12T00:37:00.111Z,6.95
2023-05-12T00:37:32.867Z,6.78
2023-05-12T00:38:04.638Z,6.25
2023-05-12T00:38:37.257Z,7.18
2023-05-12T00:39:10.802Z,7.43
2023-05-12T00:39:42.586Z,7.55
2023-05-12T00:40:14.460Z,7.05
2023-05-12T00:40:47.214Z,6.53
2023-05-12T00:41:19.031Z,6.78
2023-05-12T00:41:55.636Z,7.63
2023-05-12T00:42:28.458Z,8.20
2023-05-12T00:43:00.314Z,7.60
2023-05-12T00:43:33.477Z,6.80
2023-05-12T00:44:06.523Z,6.80
2023-05-12T00:44:38.591Z,7.45
2023-05-12T00:45:11.256Z,6.88
2023-05-12T00:45:44.580Z,7.82
2023-05-12T00:46:17.916Z,7.93
2023-05-12T00:46:50.525Z,7.75
2023-05-12T00:47:23.405Z,7.00
2023-05-12T00:47:55.550Z,8.15
2023-05-12T00:48:27.711Z,7.53
2023-05-12T00:49:00.508Z,7.65
2023-05-12T00:49:32.633Z,6.95
2023-05-12T00:50:06.318Z,6.95
2023-05-12T00:50:39.121Z,6.78
2023-05-12T00:51:12.202Z,7.75
2023-05-12T00:51:44.511Z,7.25
2023-05-12T00:52:18.724Z,8.05
2023-05-12T00:52:50.814Z,7.38
2023-05-12T00:53:22.986Z,6.55
2023-05-12T00:53:56.376Z,7.10
2023-05-12T00:54:30.107Z,7.00
2023-05-12T00:55:03.286Z,6.53
2023-05-12T00:55:36.263Z,7.22
2023-05-12T00:56:10.067Z,7.35
2023-05-12T00:56:42.094Z,6.65
2023-05-12T00:57:14.001Z,7.15
2023-05-12T00:57:47.111Z,6.50
2023-05-12T00:58:19.047Z,7.50
2023-05-12T00:58:50.842Z,6.82
2023-05-12T00:59:23.573Z,7.00
2023-05-12T00:59:55.756Z,6.65
2023-05-12T01:00:27.516Z,7.20
2023-05-12T01:01:00.324Z,7.00
2023-05-12T01:01:32.633Z,6.65
2023-05-12T01:02:04.952Z,7.32
2023-05-12T01:02:38.149Z,7.78
2023-05-12T01:03:10.144Z,6.60
2023-05-12T01:03:42.145Z,7.50
2023-05-12T01:04:15.051Z,6.70
2023-05-12T01:04:47.628Z,7.68
2023-05-12T01:05:20.675Z,7.05
2023-05-12T01:06:00.130Z,7.55
2023-05-12T01:06:38.199Z,7.35
2023-05-12T01:07:15.971Z,7.55
2023-05-12T01:07:50.996Z,6.78
2023-05-12T01:08:23.259Z,7.38
2023-05-12T01:08:55.637Z,7.95
2023-05-12T01:09:28.442Z,7.55
2023-05-12T01:10:00.304Z,8.45
2023-05-12T01:10:32.135Z,7.43
2023-05-12T01:11:04.033Z,8.10
2023-05-12T01:11:36.753Z,8.05
2023-05-12T01:12:08.623Z,8.40
2023-05-12T01:12:40.391Z,7.35
2023-05-12T01:13:13.209Z,7.50
2023-05-12T01:13:45.098Z,8.77
2023-05-12T01:14:16.931Z,8.60
2023-05-12T01:14:49.102Z,8.15
2023-05-12T01:15:21.925Z,8.02
2023-05-12T01:15:55.964Z,8.25
2023-05-12T01:16:35.164Z,7.25
2023-05-12T01:17:11.514Z,8.43
2023-05-12T01:17:48.437Z,7.47
2023-05-12T01:18:23.208Z,7.35
2023-05-12T01:18:56.704Z,8.07
2023-05-12T01:19:40.535Z,6.70
2023-05-12T01:20:14.922Z,8.55
2023-05-12T01:20:48.758Z,7.93
2023-05-12T01:21:20.620Z,7.88
2023-05-12T01:21:52.850Z,7.93
2023-05-12T01:22:31.141Z,7.82
2023-05-12T01:23:05.422Z,6.85
2023-05-12T01:23:42.482Z,6.65
2023-05-12T01:24:18.640Z,7.93
2023-05-12T01:24:52.509Z,7.53
2023-05-12T01:25:25.036Z,7.35
2023-05-12T01:26:04.760Z,7.95
2023-05-12T01:26:36.631Z,8.05
2023-05-12T01:27:08.993Z,8.15
2023-05-12T01:27:42.138Z,8.13
2023-05-12T01:28:14.244Z,8.60
2023-05-12T01:28:47.148Z,8.18
2023-05-12T01:29:20.164Z,8.40
2023-05-12T01:29:53.524Z,9.65
2023-05-12T01:30:26.761Z,7.65
2023-05-12T01:30:59.318Z,8.00
2023-05-12T01:31:33.120Z,8.10
2023-05-12T01:32:05.421Z,8.10
2023-05-12T01:32:39.285Z,8.60
2023-05-12T01:33:12.186Z,8.13
2023-05-12T01:33:44.144Z,8.10
2023-05-12T01:34:18.278Z,7.68
2023-05-12T01:34:51.291Z,8.15
2023-05-12T01:35:23.094Z,8.40
2023-05-12T01:35:54.867Z,7.28
2023-05-12T01:36:27.628Z,7.68
2023-05-12T01:36:59.407Z,7.60
2023-05-12T01:37:31.203Z,8.05
2023-05-12T01:38:04.144Z,7.20
2023-05-12T01:38:35.922Z,7.57
2023-05-12T01:39:07.750Z,8.23
2023-05-12T01:39:40.514Z,7.75
2023-05-12T01:40:12.680Z,7.90
2023-05-12T01:40:44.463Z,7.60
2023-05-12T01:41:18.563Z,7.68
2023-05-12T01:41:50.371Z,8.40
2023-05-12T01:42:22.430Z,8.13
2023-05-12T01:42:55.614Z,8.38
2023-05-12T01:43:27.387Z,8.30
2023-05-12T01:43:59.207Z,8.73
2023-05-12T01:44:31.350Z,8.90
2023-05-12T01:45:04.330Z,9.68
2023-05-12T01:45:36.409Z,8.32
2023-05-12T01:46:10.665Z,8.60
2023-05-12T01:46:43.527Z,8.50
2023-05-12T01:47:15.804Z,7.95
2023-05-12T01:47:47.718Z,8.18
2023-05-12T01:48:20.497Z,9.45
2023-05-12T01:48:52.289Z,8.60
2023-05-12T01:49:24.107Z,9.70
2023-05-12T01:49:56.908Z,8.02
2023-05-12T01:50:28.791Z,8.15
2023-05-12T01:51:00.959Z,9.02
2023-05-12T01:51:33.827Z,7.82
2023-05-12T01:52:06.314Z,9.25
2023-05-12T01:52:38.103Z,9.00
2023-05-12T01:53:10.362Z,10.10
2023-05-12T01:53:43.176Z,9.70
2023-05-12T01:54:15.227Z,9.32
2023-05-12T01:54:47.018Z,9.48
2023-05-12T01:55:18.985Z,9.82
2023-05-12T01:55:51.710Z,9.70
2023-05-12T01:56:24.795Z,12.95
2023-05-12T01:56:56.659Z,57.25
2023-05-12T01:57:29.393Z,41.88
2023-05-12T01:58:01.217Z,18.98
2023-05-12T01:58:33.001Z,9.55
2023-05-12T01:59:05.865Z,9.48
2023-05-12T01:59:37.668Z,8.00
2023-05-12T02:00:10.873Z,10.45
2023-05-12T02:00:43.595Z,13.43
2023-05-12T02:01:15.475Z,11.40
2023-05-12T02:01:47.426Z,10.45
2023-05-12T02:02:20.428Z,11.10
2023-05-12T02:02:52.243Z,10.77
2023-05-12T02:03:24.179Z,10.90
2023-05-12T02:03:57.155Z,8.27
2023-05-12T02:04:29.020Z,9.55
2023-05-12T02:05:00.866Z,9.55
2023-05-12T02:05:33.574Z,8.88
2023-05-12T02:06:05.570Z,9.30
2023-05-12T02:06:37.368Z,9.27
2023-05-12T02:07:09.408Z,8.27
2023-05-12T02:07:42.427Z,8.85
2023-05-12T02:08:14.206Z,8.57
2023-05-12T02:08:46.015Z,9.73
2023-05-12T02:09:17.826Z,8.63
2023-05-12T02:09:50.840Z,9.50
2023-05-12T02:10:22.770Z,8.68
2023-05-12T02:11:04.927Z,9.15
2023-05-12T02:11:39.004Z,9.07
2023-05-12T02:12:10.827Z,9.23
2023-05-12T02:12:42.665Z,8.15
2023-05-12T02:13:15.418Z,9.25
2023-05-12T02:13:47.232Z,9.75
2023-05-12T02:14:19.039Z,8.70
2023-05-12T02:14:51.753Z,8.40
2023-05-12T02:15:23.534Z,7.88
2023-05-12T02:15:55.877Z,8.88
2023-05-12T02:16:28.711Z,9.50
2023-05-12T02:17:00.572Z,8.68
2023-05-12T02:17:32.464Z,8.60
2023-05-12T02:18:05.415Z,9.38
2023-05-12T02:18:37.279Z,9.40
2023-05-12T02:19:09.142Z,9.48
2023-05-12T02:19:41.912Z,9.55
2023-05-12T02:20:13.777Z,10.30
2023-05-12T02:20:45.550Z,9.00
2023-05-12T02:21:18.277Z,10.05
2023-05-12T02:21:50.110Z,9.13
2023-05-12T02:22:21.923Z,9.02
2023-05-12T02:22:54.675Z,10.52
2023-05-12T02:23:26.459Z,9.77
2023-05-12T02:23:58.309Z,9.77
2023-05-12T02:24:31.125Z,9.52
2023-05-12T02:25:02.982Z,9.00
2023-05-12T02:25:34.734Z,9.35
2023-05-12T02:26:06.569Z,9.38
2023-05-12T02:26:40.655Z,9.45
2023-05-12T02:27:12.468Z,9.32
2023-05-12T02:27:45.024Z,8.93
2023-05-12T02:28:17.870Z,8.80
2023-05-12T02:28:49.651Z,8.82
2023-05-12T02:29:21.441Z,9.18
2023-05-12T02:29:54.176Z,9.27
2023-05-12T02:30:25.953Z,9.57
2023-05-12T02:30:57.877Z,8.70
2023-05-12T02:31:29.788Z,9.10
2023-05-12T02:32:02.609Z,9.38
2023-05-12T02:32:34.494Z,9.13
2023-05-12T02:33:06.300Z,9.00
2023-05-12T02:33:38.135Z,9.05
2023-05-12T02:34:10.945Z,9.60
2023-05-12T02:34:42.762Z,10.50
2023-05-12T02:35:14.637Z,8.77
2023-05-12T02:35:47.443Z,10.50
2023-05-12T02:36:19.196Z,8.80
2023-05-12T02:36:52.133Z,10.05
2023-05-12T02:37:24.152Z,9.93
2023-05-12T02:37:55.965Z,9.40
2023-05-12T02:38:28.709Z,9.60
2023-05-12T02:39:00.539Z,9.30
2023-05-12T02:39:32.388Z,10.02
2023-05-12T02:40:05.862Z,9.65
2023-05-12T02:40:38.860Z,9.05
2023-05-12T02:41:10.723Z,10.30
2023-05-12T02:41:43.854Z,10.18
2023-05-12T02:42:16.810Z,10.57
2023-05-12T02:42:48.586Z,10.95
2023-05-12T02:43:20.370Z,10.35
2023-05-12T02:43:52.121Z,9.38
2023-05-12T02:44:24.918Z,9.85
2023-05-12T02:44:56.692Z,9.85
2023-05-12T02:45:28.576Z,10.25
2023-05-12T02:46:01.358Z,9.52
2023-05-12T02:46:33.477Z,10.50
2023-05-12T02:47:05.914Z,9.38
2023-05-12T02:47:37.864Z,10.45
2023-05-12T02:48:10.705Z,9.10
2023-05-12T02:48:42.502Z,9.45
2023-05-12T02:49:14.302Z,9.00
2023-05-12T02:49:47.008Z,10.55
2023-05-12T02:50:19.160Z,10.48
2023-05-12T02:50:51.167Z,9.45
2023-05-12T02:51:24.002Z,10.95
2023-05-12T02:51:55.818Z,9.85
2023-05-12T02:52:27.648Z,11.63
2023-05-12T02:52:59.416Z,10.55
2023-05-12T02:53:32.157Z,9.68
2023-05-12T02:54:04.113Z,9.98
2023-05-12T02:54:36.639Z,9.48
2023-05-12T02:55:08.867Z,10.18
2023-05-12T02:55:41.631Z,9.40
2023-05-12T02:56:13.427Z,10.25
2023-05-12T02:56:46.568Z,10.35
2023-05-12T02:57:19.368Z,10.75
2023-05-12T02:57:51.179Z,10.32
2023-05-12T02:58:22.997Z,9.80
2023-05-12T02:58:55.718Z,10.45
2023-05-12T02:59:27.504Z,9.18
2023-05-12T02:59:59.316Z,9.02
2023-05-12T03:00:32.092Z,9.65
2023-05-12T03:01:10.981Z,9.13
2023-05-12T03:01:44.464Z,9.40
2023-05-12T03:02:16.307Z,9.68
2023-05-12T03:02:48.200Z,9.13
2023-05-12T03:03:21.201Z,10.23
2023-05-12T03:03:53.140Z,9.45
2023-05-12T03:04:25.056Z,9.27
2023-05-12T03:04:57.815Z,9.05
2023-05-12T03:05:29.864Z,9.32
2023-05-12T03:06:01.685Z,9.25
2023-05-12T03:06:34.520Z,8.98
2023-05-12T03:07:07.038Z,9.02
2023-05-12T03:07:39.409Z,8.75
2023-05-12T03:08:12.232Z,7.80
2023-05-12T03:08:44.035Z,9.25
2023-05-12T03:09:16.580Z,8.60
2023-05-12T03:09:49.374Z,8.25
2023-05-12T03:10:21.620Z,9.27
2023-05-12T03:10:53.628Z,9.15
2023-05-12T03:11:26.678Z,9.50
2023-05-12T03:11:59.848Z,9.80
2023-05-12T03:12:31.859Z,10.05
2023-05-12T03:13:04.662Z,8.90
2023-05-12T03:13:36.538Z,8.55
2023-05-12T03:14:08.293Z,8.95
2023-05-12T03:14:41.012Z,9.50
2023-05-12T03:15:13.014Z,8.50
2023-05-12T03:15:44.849Z,10.23
2023-05-12T03:16:19.632Z,8.88
2023-05-12T03:16:51.766Z,9.32
2023-05-12T03:17:23.653Z,9.00
2023-05-12T03:17:56.491Z,9.52
2023-05-12T03:18:28.527Z,10.40
2023-05-12T03:19:00.352Z,8.55
2023-05-12T03:19:32.157Z,8.80
2023-05-12T03:20:05.560Z,8.85
2023-05-12T03:20:37.591Z,10.10
2023-05-12T03:21:09.459Z,8.45
2023-05-12T03:21:41.869Z,9.15
2023-05-12T03:22:14.864Z,9.95
2023-05-12T03:22:46.726Z,9.82
2023-05-12T03:23:18.714Z,9.55
2023-05-12T03:23:52.661Z,9.93
2023-05-12T03:24:24.462Z,8.45
2023-05-12T03:24:56.380Z,9.35
2023-05-12T03:25:29.252Z,10.15
2023-05-12T03:26:01.413Z,10.15
2023-05-12T03:26:33.208Z,9.63
2023-05-12T03:27:07.541Z,10.38
2023-05-12T03:27:39.373Z,9.40
2023-05-12T03:28:11.556Z,10.10
2023-05-12T03:28:44.358Z,10.35
2023-05-12T03:29:16.186Z,10.00
2023-05-12T03:29:48.012Z,10.50
2023-05-12T03:30:20.945Z,9.75
2023-05-12T03:30:53.558Z,10.63
2023-05-12T03:31:26.004Z,9.50
2023-05-12T03:31:59.005Z,9.45
2023-05-12T03:32:31.158Z,10.15
2023-05-12T03:33:03.057Z,9.60
2023-05-12T03:33:35.826Z,9.23
2023-05-12T03:34:07.690Z,9.20
2023-05-12T03:34:39.682Z,9.73
2023-05-12T03:35:12.530Z,8.88
2023-05-12T03:35:44.322Z,9.65
2023-05-12T03:36:17.095Z,10.23
2023-05-12T03:36:48.892Z,9.88
2023-05-12T03:37:20.864Z,9.65
2023-05-12T03:37:53.608Z,9.27
2023-05-12T03:38:25.397Z,9.95
2023-05-12T03:38:57.301Z,8.75
2023-05-12T03:39:29.062Z,9.05
2023-05-12T03:40:01.865Z,8.98
2023-05-12T03:40:33.701Z,9.20
2023-05-12T03:41:06.143Z,9.93
2023-05-12T03:41:38.160Z,9.88
2023-05-12T03:42:12.209Z,9.50
2023-05-12T03:42:44.305Z,10.02
2023-05-12T03:43:17.126Z,9.07
2023-05-12T03:43:49.011Z,8.50
2023-05-12T03:44:21.181Z,9.95
2023-05-12T03:44:53.927Z,8.15
2023-05-12T03:45:25.669Z,10.25
2023-05-12T03:45:57.667Z,9.60
2023-05-12T03:46:30.517Z,9.18
2023-05-12T03:47:02.407Z,8.82
2023-05-12T03:47:35.765Z,10.10
2023-05-12T03:48:08.756Z,8.77
2023-05-12T03:48:40.733Z,9.57
2023-05-12T03:49:12.695Z,9.35
2023-05-12T03:49:44.507Z,8.23
2023-05-12T03:50:17.621Z,8.85
2023-05-12T03:50:49.583Z,8.75
2023-05-12T03:51:21.345Z,9.70
2023-05-12T03:51:54.173Z,10.30
2023-05-12T03:52:25.966Z,8.63
2023-05-12T03:52:57.766Z,8.45
2023-05-12T03:53:30.594Z,8.40
2023-05-12T03:54:02.433Z,9.40
2023-05-12T03:54:36.023Z,9.93
2023-05-12T03:55:10.272Z,10.00
2023-05-12T03:55:42.298Z,7.72
2023-05-12T03:56:15.478Z,9.32
2023-05-12T03:56:48.285Z,9.85
2023-05-12T03:57:21.524Z,10.20
2023-05-12T03:57:53.313Z,9.90
2023-05-12T03:58:26.364Z,9.02
2023-05-12T03:58:58.193Z,10.32
2023-05-12T03:59:31.222Z,44.05
2023-05-12T04:00:04.463Z,22.48
2023-05-12T04:00:36.442Z,33.55
2023-05-12T04:01:08.448Z,66.10
2023-05-12T04:01:40.686Z,61.97
2023-05-12T04:02:13.790Z,58.15
2023-05-12T04:02:46.489Z,32.95
2023-05-12T04:03:18.536Z,23.65
2023-05-12T04:03:51.511Z,20.38
2023-05-12T04:04:23.450Z,18.98
2023-05-12T04:04:55.217Z,14.90
2023-05-12T04:05:27.992Z,13.68
2023-05-12T04:05:59.969Z,11.85
2023-05-12T04:06:31.764Z,13.43
2023-05-12T04:07:04.556Z,10.23
2023-05-12T04:07:36.730Z,9.40
2023-05-12T04:08:08.659Z,10.75
2023-05-12T04:08:42.258Z,10.25
2023-05-12T04:09:14.142Z,9.10
2023-05-12T04:09:46.520Z,10.88
2023-05-12T04:10:20.552Z,10.18
2023-05-12T04:10:54.968Z,9.93
2023-05-12T04:11:26.800Z,10.63
2023-05-12T04:12:00.119Z,10.15
2023-05-12T04:12:34.342Z,10.55
2023-05-12T04:13:07.981Z,10.48
2023-05-12T04:13:40.856Z,9.95
2023-05-12T04:14:12.626Z,9.25
2023-05-12T04:14:45.424Z,11.10
2023-05-12T04:15:17.373Z,10.32
2023-05-12T04:15:49.239Z,10.02
2023-05-12T04:16:21.228Z,10.23
2023-05-12T04:16:54.134Z,9.98
2023-05-12T04:17:26.058Z,10.65
2023-05-12T04:17:57.912Z,11.05
2023-05-12T04:18:30.266Z,10.30
2023-05-12T04:19:03.411Z,10.52
2023-05-12T04:19:35.333Z,11.02
2023-05-12T04:20:08.790Z,9.15
2023-05-12T04:20:41.669Z,13.25
2023-05-12T04:21:13.506Z,11.85
2023-05-12T04:21:45.906Z,10.23
2023-05-12T04:22:18.660Z,9.60
2023-05-12T04:22:51.350Z,9.38
2023-05-12T04:23:23.490Z,9.68
2023-05-12T04:23:56.272Z,11.70
2023-05-12T04:24:28.074Z,9.73
2023-05-12T04:24:59.897Z,9.75
2023-05-12T04:25:32.775Z,10.13
2023-05-12T04:26:05.166Z,10.10
2023-05-12T04:26:37.029Z,10.35
2023-05-12T04:27:09.760Z,9.27
2023-05-12T04:27:42.909Z,9.98
2023-05-12T04:28:14.751Z,10.43
2023-05-12T04:28:47.617Z,10.32
2023-05-12T04:29:20.534Z,10.50
2023-05-12T04:29:52.337Z,10.15
2023-05-12T04:30:24.115Z,9.40
2023-05-12T04:30:55.911Z,10.05
2023-05-12T04:31:28.736Z,9.52
2023-05-12T04:32:00.718Z,9.65
2023-05-12T04:32:32.672Z,9.35
2023-05-12T04:33:04.608Z,9.45
2023-05-12T04:33:37.347Z,10.10
2023-05-12T04:34:09.218Z,10.32
2023-05-12T04:34:41.490Z,9.30
2023-05-12T04:35:14.274Z,10.15
2023-05-12T04:35:46.647Z,10.20
2023-05-12T04:36:18.464Z,10.13
2023-05-12T04:36:51.443Z,9.43
2023-05-12T04:37:23.480Z,10.07
2023-05-12T04:37:55.246Z,12.23
2023-05-12T04:38:28.223Z,12.40
2023-05-12T04:39:00.007Z,10.90
2023-05-12T04:39:31.811Z,12.90
2023-05-12T04:40:05.230Z,11.82
2023-05-12T04:40:37.021Z,11.95
2023-05-12T04:41:09.145Z,10.73
2023-05-12T04:41:41.874Z,11.10
2023-05-12T04:42:13.679Z,11.63
2023-05-12T04:42:46.772Z,12.13
2023-05-12T04:44:28.906Z,9.68
2023-05-12T04:45:00.701Z,9.30
2023-05-12T04:45:33.429Z,8.57
2023-05-12T04:46:05.555Z,8.88
2023-05-12T04:46:37.449Z,8.68
2023-05-12T04:47:09.488Z,8.98
2023-05-12T04:47:42.364Z,7.78
2023-05-12T04:48:14.201Z,8.85
2023-05-12T04:48:46.189Z,7.50
2023-05-12T04:49:19.112Z,7.95
2023-05-12T04:49:50.945Z,8.50
2023-05-12T04:50:22.783Z,7.97
2023-05-12T04:50:55.537Z,7.80
2023-05-12T04:51:27.388Z,7.85
2023-05-12T04:51:59.176Z,7.75
2023-05-12T04:52:31.955Z,7.07
2023-05-12T04:53:03.717Z,10.50
2023-05-12T04:53:36.201Z,9.45
2023-05-12T04:54:10.264Z,8.73
2023-05-12T04:54:42.035Z,8.05
2023-05-12T04:55:13.878Z,8.05
2023-05-12T04:55:46.660Z,8.23
2023-05-12T04:56:18.521Z,7.30
2023-05-12T04:56:51.473Z,7.40
2023-05-12T04:57:23.378Z,7.13
2023-05-12T04:57:56.503Z,8.15
2023-05-12T04:58:29.251Z,9.25
2023-05-12T04:59:01.147Z,10.40
2023-05-12T04:59:32.930Z,8.63
2023-05-12T05:00:06.964Z,8.57
2023-05-12T05:00:38.802Z,8.27
2023-05-12T05:01:12.237Z,7.20
2023-05-12T05:01:45.135Z,6.40
2023-05-12T05:02:17.051Z,6.60
2023-05-12T05:02:49.054Z,6.75
2023-05-12T05:03:22.474Z,6.47
2023-05-12T05:03:54.546Z,7.28
2023-05-12T05:04:26.402Z,6.40
2023-05-12T05:04:58.203Z,6.20
2023-05-12T05:05:30.951Z,6.20
2023-05-12T05:06:02.768Z,6.07
2023-05-12T05:06:34.653Z,5.93
2023-05-12T05:07:07.540Z,6.18
2023-05-12T05:07:39.365Z,6.22
2023-05-12T05:08:11.130Z,6.97
2023-05-12T05:08:43.986Z,6.13
2023-05-12T05:09:15.933Z,6.03
2023-05-12T05:09:47.716Z,6.20
2023-05-12T05:10:19.515Z,6.97
2023-05-12T05:10:52.349Z,6.57
2023-05-12T05:11:24.130Z,6.18
2023-05-12T05:11:56.053Z,6.43
2023-05-12T05:12:28.782Z,7.20
2023-05-12T05:13:01.923Z,6.55
2023-05-12T05:13:33.767Z,6.75
2023-05-12T05:14:06.662Z,5.93
2023-05-12T05:14:39.024Z,6.20
2023-05-12T05:15:11.593Z,6.68
2023-05-12T05:15:51.195Z,5.25
2023-05-12T05:16:23.490Z,5.75
2023-05-12T05:16:56.358Z,5.88
2023-05-12T05:17:28.513Z,5.60
2023-05-12T05:18:01.943Z,5.05
2023-05-12T05:18:35.232Z,6.40
2023-05-12T05:19:15.925Z,6.50
2023-05-12T05:19:59.009Z,6.13
2023-05-12T05:20:34.227Z,5.90
2023-05-12T05:21:06.199Z,5.18
2023-05-12T05:21:38.037Z,6.70
2023-05-12T05:22:10.781Z,5.90
2023-05-12T05:22:42.727Z,5.93
2023-05-12T05:23:14.543Z,5.70
2023-05-12T05:23:47.275Z,5.43
2023-05-12T05:24:19.052Z,5.22
2023-05-12T05:24:50.868Z,5.60
2023-05-12T05:25:23.725Z,5.38
2023-05-12T05:25:56.067Z,5.63
2023-05-12T05:26:27.979Z,6.10
2023-05-12T05:27:00.855Z,5.60
2023-05-12T05:27:32.690Z,5.75
2023-05-12T05:28:07.108Z,5.80
2023-05-12T05:28:40.078Z,5.28
2023-05-12T05:29:11.994Z,5.93
2023-05-12T05:29:43.762Z,5.60
2023-05-12T05:30:16.658Z,5.80
2023-05-12T05:30:48.450Z,5.28
2023-05-12T05:31:20.860Z,4.63
2023-05-12T05:31:53.667Z,4.55
2023-05-12T05:32:25.719Z,5.30
2023-05-12T05:32:57.618Z,5.28
2023-05-12T05:33:30.391Z,5.38
2023-05-12T05:34:02.337Z,6.38
2023-05-12T05:34:34.192Z,5.95
2023-05-12T05:35:07.881Z,6.43
2023-05-12T05:35:39.999Z,5.43
2023-05-12T05:36:12.308Z,5.85
2023-05-12T05:36:45.148Z,5.22
2023-05-12T05:37:18.164Z,4.00
2023-05-12T05:37:50.755Z,6.00
2023-05-12T05:38:23.552Z,5.88
2023-05-12T05:38:55.718Z,6.10
2023-05-12T05:39:30.609Z,6.38
2023-05-12T05:40:03.586Z,6.40
2023-05-12T05:40:45.365Z,7.38
2023-05-12T05:41:22.246Z,6.30
2023-05-12T05:41:54.038Z,5.38
2023-05-12T05:42:25.859Z,5.68
2023-05-12T05:42:58.643Z,5.72
2023-05-12T05:43:31.922Z,5.65
2023-05-12T05:44:03.796Z,5.78
2023-05-12T05:44:36.756Z,5.22
2023-05-12T05:45:09.614Z,5.20
2023-05-12T05:45:41.482Z,5.85
2023-05-12T05:46:14.316Z,5.97
2023-05-12T05:46:46.158Z,6.07
2023-05-12T05:47:18.987Z,5.07
2023-05-12T05:47:53.068Z,5.45
2023-05-12T05:48:25.389Z,5.10
2023-05-12T05:48:58.129Z,6.20
2023-05-12T05:49:29.903Z,6.25
2023-05-12T05:50:01.854Z,5.95
2023-05-12T05:50:34.796Z,5.60
2023-05-12T05:51:06.867Z,5.10
2023-05-12T05:51:38.653Z,4.68
2023-05-12T05:52:11.460Z,4.90
2023-05-12T05:52:43.302Z,5.35
2023-05-12T05:53:18.172Z,5.78
2023-05-12T05:53:49.983Z,5.90
2023-05-12T05:54:23.575Z,5.90
2023-05-12T05:54:56.471Z,5.90
2023-05-12T05:55:28.390Z,5.25
2023-05-12T05:56:00.199Z,5.65
2023-05-12T05:56:35.737Z,54.83
2023-05-12T05:57:07.559Z,42.28
2023-05-12T05:57:39.445Z,37.28
2023-05-12T05:58:12.203Z,42.40
2023-05-12T05:58:45.361Z,48.45
2023-05-12T05:59:17.155Z,41.92
2023-05-12T05:59:49.914Z,32.25
2023-05-12T06:00:22.319Z,25.38
2023-05-12T06:00:54.151Z,17.35
2023-05-12T06:01:27.055Z,13.10
2023-05-12T06:01:59.022Z,11.10
2023-05-12T06:02:32.165Z,9.05
2023-05-12T06:03:05.586Z,7.95
2023-05-12T06:03:37.499Z,7.78
2023-05-12T06:04:09.357Z,8.00
2023-05-12T06:04:42.290Z,6.88
2023-05-12T06:05:14.537Z,6.70
2023-05-12T06:05:46.477Z,6.22
2023-05-12T06:06:19.261Z,5.43
2023-05-12T06:06:51.080Z,6.30
2023-05-12T06:07:22.878Z,5.78
2023-05-12T06:07:55.666Z,5.55
2023-05-12T06:08:27.423Z,6.57
2023-05-12T06:09:00.148Z,6.25
2023-05-12T06:09:32.327Z,6.45
2023-05-12T06:10:05.957Z,6.22
2023-05-12T06:10:37.746Z,6.20
2023-05-12T06:11:09.521Z,5.22
2023-05-12T06:11:42.259Z,6.28
2023-05-12T06:12:14.101Z,6.00
2023-05-12T06:12:46.014Z,6.65
2023-05-12T06:13:18.792Z,6.88
2023-05-12T06:13:52.508Z,5.80
2023-05-12T06:14:25.303Z,6.55
2023-05-12T06:14:57.192Z,6.63
2023-05-12T06:15:29.075Z,5.80
2023-05-12T06:16:01.898Z,6.18
2023-05-12T06:16:33.724Z,5.78
2023-05-12T06:17:06.016Z,6.15
2023-05-12T06:17:39.015Z,5.47
2023-05-12T06:18:10.948Z,5.53
2023-05-12T06:18:42.806Z,5.80
2023-05-12T06:19:15.787Z,5.70
2023-05-12T06:19:49.539Z,6.10
2023-05-12T06:20:23.144Z,6.32
2023-05-12T06:20:55.891Z,5.80
2023-05-12T06:21:27.755Z,6.60
2023-05-12T06:21:59.561Z,5.97
2023-05-12T06:22:33.069Z,5.55
2023-05-12T06:23:05.550Z,5.50
2023-05-12T06:23:37.384Z,5.57
2023-05-12T06:24:10.138Z,5.35
2023-05-12T06:24:41.990Z,5.63
2023-05-12T06:25:13.780Z,5.00
2023-05-12T06:25:48.920Z,5.32
2023-05-12T06:26:21.023Z,5.55
2023-05-12T06:26:52.855Z,4.88
2023-05-12T06:27:25.636Z,4.65
2023-05-12T06:27:57.446Z,4.80
2023-05-12T06:28:29.243Z,4.53
2023-05-12T06:29:03.522Z,5.72
2023-05-12T06:29:35.334Z,4.68
2023-05-12T06:30:09.414Z,4.50
2023-05-12T06:30:42.327Z,4.90
2023-05-12T06:31:14.124Z,5.28
2023-05-12T06:31:45.945Z,4.85
2023-05-12T06:32:19.093Z,4.90
2023-05-12T06:32:51.043Z,4.80
2023-05-12T06:33:22.847Z,5.07
2023-05-12T06:33:55.571Z,5.35
2023-05-12T06:34:27.656Z,5.13
2023-05-12T06:34:59.546Z,4.75
2023-05-12T06:35:32.544Z,4.20
2023-05-12T06:36:04.729Z,5.15
2023-05-12T06:36:36.508Z,5.10
2023-05-12T06:37:09.292Z,5.60
2023-05-12T06:37:41.218Z,5.38
2023-05-12T06:38:12.997Z,4.90
2023-05-12T06:38:45.803Z,4.65
2023-05-12T06:39:17.610Z,4.75
2023-05-12T06:39:49.374Z,4.53
2023-05-12T06:40:22.130Z,5.65
2023-05-12T06:40:53.926Z,4.80
2023-05-12T06:41:25.862Z,4.88
2023-05-12T06:41:58.671Z,4.82
2023-05-12T06:42:30.498Z,5.15
2023-05-12T06:43:03.499Z,5.28
2023-05-12T06:43:35.373Z,12.43
2023-05-12T06:44:12.564Z,12.48
2023-05-12T06:44:45.497Z,14.18
2023-05-12T06:45:17.539Z,16.15
2023-05-12T06:45:50.492Z,15.38
2023-05-12T06:46:22.424Z,12.80
2023-05-12T06:46:55.339Z,11.32
2023-05-12T06:47:27.178Z,7.70
2023-05-12T06:47:58.974Z,7.00
2023-05-12T06:48:31.766Z,5.93
2023-05-12T06:49:03.542Z,5.50
2023-05-12T06:49:36.936Z,5.40
2023-05-12T06:50:10.129Z,4.88
2023-05-12T06:50:42.494Z,5.47
2023-05-12T06:51:15.599Z,5.57
2023-05-12T06:51:47.467Z,5.43
2023-05-12T06:52:20.485Z,4.65
2023-05-12T06:52:53.355Z,4.75
2023-05-12T06:53:25.682Z,3.53
2023-05-12T06:53:58.580Z,3.55
2023-05-12T06:54:30.391Z,2.92
2023-05-12T06:55:02.247Z,3.55
2023-05-12T06:55:35.024Z,3.53
2023-05-12T06:56:06.979Z,2.60
2023-05-12T06:56:38.794Z,2.97
2023-05-12T06:57:11.541Z,3.00
2023-05-12T06:57:43.440Z,2.88
2023-05-12T06:58:15.272Z,3.08
2023-05-12T06:58:48.107Z,2.72
2023-05-12T06:59:21.483Z,3.72
2023-05-12T06:59:54.247Z,2.70
2023-05-12T07:00:26.488Z,3.10
2023-05-12T07:00:58.375Z,3.38
2023-05-12T07:01:32.268Z,2.83
2023-05-12T07:02:04.277Z,3.28
2023-05-12T07:02:36.093Z,3.70
2023-05-12T07:03:10.004Z,3.03
2023-05-12T07:03:42.193Z,3.67
2023-05-12T07:04:14.483Z,3.33
2023-05-12T07:04:47.389Z,3.13
2023-05-12T07:05:19.940Z,2.55
2023-05-12T07:05:52.101Z,3.33
2023-05-12T07:06:25.187Z,10.00
2023-05-12T07:06:56.997Z,12.13
2023-05-12T07:07:28.803Z,53.13
2023-05-12T07:08:01.556Z,43.60
2023-05-12T07:08:33.368Z,27.60
2023-05-12T07:09:06.221Z,28.77
2023-05-12T07:09:40.418Z,33.38
2023-05-12T07:10:12.298Z,22.60
2023-05-12T07:10:45.076Z,19.30
2023-05-12T07:11:19.950Z,10.88
2023-05-12T07:11:51.775Z,5.75
2023-05-12T07:12:24.575Z,4.97